createdAt,value
2023-05-05T00:00:33.241Z,23.64
2023-05-05T00:01:33.347Z,23.65
2023-05-05T00:02:33.365Z,23.64
2023-05-05T00:03:33.399Z,23.64
2023-05-05T00:04:33.369Z,23.63
2023-05-05T00:05:33.418Z,23.63
2023-05-05T00:06:33.440Z,23.63
2023-05-05T00:07:33.459Z,23.63
2023-05-05T00:08:33.501Z,23.63
2023-05-05T00:09:33.566Z,23.63
2023-05-05T00:10:33.587Z,23.62
2023-05-05T00:11:33.646Z,23.63
2023-05-05T00:12:33.684Z,23.62
2023-05-05T00:13:33.693Z,23.62
2023-05-05T00:14:33.737Z,23.62
2023-05-05T00:15:33.763Z,23.62
2023-05-05T00:16:33.791Z,23.62
2023-05-05T00:17:33.884Z,23.62
2023-05-05T00:18:33.861Z,23.61
2023-05-05T00:19:33.872Z,23.61
2023-05-05T00:20:33.902Z,23.61
2023-05-05T00:21:33.931Z,23.61
2023-05-05T00:22:33.946Z,23.61
2023-05-05T00:23:33.998Z,23.61
2023-05-05T00:24:34.021Z,23.61
2023-05-05T00:25:34.038Z,23.61
2023-05-05T00:26:34.086Z,23.60
2023-05-05T00:27:34.114Z,23.60
2023-05-05T00:28:34.143Z,23.60
2023-05-05T00:29:34.190Z,23.60
2023-05-05T00:30:34.261Z,23.60
2023-05-05T00:31:34.350Z,23.60
2023-05-05T00:32:34.437Z,23.60
2023-05-05T00:33:34.533Z,23.59
2023-05-05T00:34:34.507Z,23.58
2023-05-05T00:35:34.602Z,23.59
2023-05-05T00:36:34.634Z,23.59
2023-05-05T00:37:34.672Z,23.59
2023-05-05T00:38:34.731Z,23.58
2023-05-05T00:39:34.817Z,23.59
2023-05-05T00:40:34.846Z,23.58
2023-05-05T00:41:34.901Z,23.58
2023-05-05T00:42:34.914Z,23.59
2023-05-05T00:43:34.944Z,23.59
2023-05-05T00:44:34.994Z,23.59
2023-05-05T00:45:35.046Z,23.58
2023-05-05T00:46:35.108Z,23.59
2023-05-05T00:47:35.160Z,23.60
2023-05-05T00:48:35.179Z,23.59
2023-05-05T00:49:35.232Z,23.60
2023-05-05T00:50:35.238Z,23.60
2023-05-05T00:51:35.256Z,23.60
2023-05-05T00:52:35.293Z,23.60
2023-05-05T00:53:35.351Z,23.60
2023-05-05T00:54:35.383Z,23.61
2023-05-05T00:55:35.425Z,23.60
2023-05-05T00:56:35.437Z,23.61
2023-05-05T00:57:35.503Z,23.61
2023-05-05T00:58:35.533Z,23.61
2023-05-05T00:59:35.540Z,23.61
2023-05-05T01:00:35.578Z,23.61
2023-05-05T01:01:35.638Z,23.61
2023-05-05T01:02:35.704Z,23.62
2023-05-05T01:03:35.750Z,23.62
2023-05-05T01:04:35.728Z,23.62
2023-05-05T01:05:35.751Z,23.62
2023-05-05T01:06:35.780Z,23.63
2023-05-05T01:07:35.814Z,23.63
2023-05-05T01:08:35.832Z,23.62
2023-05-05T01:09:35.885Z,23.63
2023-05-05T01:10:35.902Z,23.63
2023-05-05T01:11:35.917Z,23.63
2023-05-05T01:12:36.029Z,23.64
2023-05-05T01:13:35.997Z,23.64
2023-05-05T01:14:36.021Z,23.64
2023-05-05T01:15:36.046Z,23.64
2023-05-05T01:16:36.124Z,23.65
2023-05-05T01:17:36.115Z,23.65
2023-05-05T01:18:36.116Z,23.65
2023-05-05T01:19:36.153Z,23.65
2023-05-05T01:20:36.206Z,23.65
2023-05-05T01:21:36.213Z,23.66
2023-05-05T01:22:36.438Z,23.66
2023-05-05T01:23:36.246Z,23.66
2023-05-05T01:24:36.250Z,23.66
2023-05-05T01:25:36.283Z,23.66
2023-05-05T01:26:36.340Z,23.66
2023-05-05T01:27:36.364Z,23.66
2023-05-05T01:28:36.368Z,23.67
2023-05-05T01:29:36.407Z,23.66
2023-05-05T01:30:36.425Z,23.67
2023-05-05T01:31:36.543Z,23.67
2023-05-05T01:32:36.492Z,23.67
2023-05-05T01:33:36.486Z,23.67
2023-05-05T01:34:36.542Z,23.67
2023-05-05T01:35:36.592Z,23.68
2023-05-05T01:36:36.620Z,23.67
2023-05-05T01:37:36.617Z,23.68
2023-05-05T01:38:36.663Z,23.67
2023-05-05T01:39:36.706Z,23.67
2023-05-05T01:40:36.707Z,23.67
2023-05-05T01:41:36.745Z,23.68
2023-05-05T01:42:36.861Z,23.67
2023-05-05T01:43:36.769Z,23.68
2023-05-05T01:44:36.789Z,23.68
2023-05-05T01:45:36.895Z,23.68
2023-05-05T01:46:36.960Z,23.68
2023-05-05T01:47:36.868Z,23.69
2023-05-05T01:48:36.883Z,23.69
2023-05-05T01:49:36.901Z,23.69
2023-05-05T01:50:36.934Z,23.69
2023-05-05T01:51:36.941Z,23.69
2023-05-05T01:52:36.971Z,23.69
2023-05-05T01:53:36.991Z,23.70
2023-05-05T01:54:37.013Z,23.69
2023-05-05T01:55:37.026Z,23.69
2023-05-05T01:56:37.033Z,23.69
2023-05-05T01:57:37.079Z,23.70
2023-05-05T01:58:37.068Z,23.69
2023-05-05T01:59:37.085Z,23.70
2023-05-05T02:00:37.106Z,23.69
2023-05-05T02:01:37.178Z,23.70
2023-05-05T02:02:37.202Z,23.70
2023-05-05T02:03:37.177Z,23.70
2023-05-05T02:04:37.187Z,23.70
2023-05-05T02:05:37.182Z,23.70
2023-05-05T02:06:37.220Z,23.70
2023-05-05T02:07:37.236Z,23.70
2023-05-05T02:08:37.261Z,23.70
2023-05-05T02:09:37.277Z,23.70
2023-05-05T02:10:37.302Z,23.70
2023-05-05T02:11:37.314Z,23.71
2023-05-05T02:12:37.382Z,23.70
2023-05-05T02:13:37.406Z,23.70
2023-05-05T02:14:37.356Z,23.71
2023-05-05T02:15:37.413Z,23.71
2023-05-05T02:16:37.418Z,23.70
2023-05-05T02:17:37.457Z,23.71
2023-05-05T02:18:37.511Z,23.70
2023-05-05T02:19:37.558Z,23.71
2023-05-05T02:20:37.557Z,23.71
2023-05-05T02:21:37.612Z,23.71
2023-05-05T02:22:37.623Z,23.71
2023-05-05T02:23:37.648Z,23.71
2023-05-05T02:24:37.656Z,23.72
2023-05-05T02:25:37.689Z,23.71
2023-05-05T02:26:37.712Z,23.71
2023-05-05T02:27:37.722Z,23.72
2023-05-05T02:28:37.815Z,23.71
2023-05-05T02:29:37.753Z,23.71
2023-05-05T02:30:37.772Z,23.72
2023-05-05T02:31:37.859Z,23.72
2023-05-05T02:32:37.908Z,23.72
2023-05-05T02:33:37.949Z,23.72
2023-05-05T02:34:38.015Z,23.72
2023-05-05T02:35:38.084Z,23.72
2023-05-05T02:36:38.127Z,23.72
2023-05-05T02:37:38.197Z,23.72
2023-05-05T02:38:38.249Z,23.72
2023-05-05T02:39:38.296Z,23.73
2023-05-05T02:40:38.368Z,23.72
2023-05-05T02:41:38.416Z,23.72
2023-05-05T02:42:38.418Z,23.72
2023-05-05T02:43:38.417Z,23.73
2023-05-05T02:44:38.558Z,23.73
2023-05-05T02:45:38.448Z,23.72
2023-05-05T02:46:38.556Z,23.73
2023-05-05T02:47:38.570Z,23.73
2023-05-05T02:48:38.547Z,23.73
2023-05-05T02:49:38.645Z,23.73
2023-05-05T02:50:38.666Z,23.73
2023-05-05T02:51:38.672Z,23.73
2023-05-05T02:52:38.720Z,23.73
2023-05-05T02:53:38.697Z,23.73
2023-05-05T02:54:38.717Z,23.73
2023-05-05T02:55:38.735Z,23.73
2023-05-05T02:56:38.754Z,23.74
2023-05-05T02:57:38.831Z,23.73
2023-05-05T02:58:38.804Z,23.73
2023-05-05T02:59:38.809Z,23.74
2023-05-05T03:00:38.820Z,23.74
2023-05-05T03:01:38.999Z,23.74
2023-05-05T03:02:38.979Z,23.74
2023-05-05T03:03:39.103Z,23.73
2023-05-05T03:04:38.865Z,23.73
2023-05-05T03:05:38.883Z,23.74
2023-05-05T03:06:38.901Z,23.74
2023-05-05T03:07:38.939Z,23.74
2023-05-05T03:08:38.932Z,23.74
2023-05-05T03:09:38.947Z,23.74
2023-05-05T03:10:38.953Z,23.74
2023-05-05T03:11:38.982Z,23.74
2023-05-05T03:12:39.033Z,23.74
2023-05-05T03:13:38.992Z,23.74
2023-05-05T03:14:39.020Z,23.74
2023-05-05T03:15:39.006Z,23.74
2023-05-05T03:16:39.094Z,23.75
2023-05-05T03:17:39.087Z,23.74
2023-05-05T03:18:39.069Z,23.74
2023-05-05T03:19:39.074Z,23.74
2023-05-05T03:20:39.078Z,23.74
2023-05-05T03:21:39.090Z,23.74
2023-05-05T03:22:39.119Z,23.74
2023-05-05T03:23:39.140Z,23.75
2023-05-05T03:24:39.173Z,23.75
2023-05-05T03:25:39.167Z,23.75
2023-05-05T03:26:39.224Z,23.76
2023-05-05T03:27:39.276Z,23.74
2023-05-05T03:28:39.320Z,23.76
2023-05-05T03:29:41.028Z,23.75
2023-05-05T03:30:39.439Z,23.75
2023-05-05T03:31:39.580Z,23.75
2023-05-05T03:32:39.620Z,23.75
2023-05-05T03:33:39.618Z,23.75
2023-05-05T03:34:39.659Z,23.75
2023-05-05T03:35:39.732Z,23.75
2023-05-05T03:36:39.779Z,23.74
2023-05-05T03:37:39.876Z,23.75
2023-05-05T03:38:39.889Z,23.77
2023-05-05T03:39:39.898Z,23.75
2023-05-05T03:40:44.186Z,23.75
2023-05-05T03:41:39.926Z,23.74
2023-05-05T03:42:39.910Z,23.75
2023-05-05T03:43:39.896Z,23.75
2023-05-05T03:44:39.884Z,23.75
2023-05-05T03:45:39.903Z,23.75
2023-05-05T03:46:39.870Z,23.75
2023-05-05T03:47:39.902Z,23.75
2023-05-05T03:48:39.867Z,23.74
2023-05-05T03:49:39.868Z,23.76
2023-05-05T03:50:39.845Z,23.76
2023-05-05T03:51:39.837Z,23.75
2023-05-05T03:52:39.839Z,23.75
2023-05-05T03:53:39.806Z,23.75
2023-05-05T03:54:39.818Z,23.76
2023-05-05T03:55:39.806Z,23.76
2023-05-05T03:56:39.786Z,23.76
2023-05-05T03:57:39.813Z,23.75
2023-05-05T03:58:39.806Z,23.76
2023-05-05T03:59:39.809Z,23.75
2023-05-05T04:00:39.827Z,23.76
2023-05-05T04:01:39.895Z,23.76
2023-05-05T04:02:39.890Z,23.75
2023-05-05T04:03:39.942Z,23.76
2023-05-05T04:04:39.919Z,23.75
2023-05-05T04:05:39.994Z,23.75
2023-05-05T04:06:40.057Z,23.75
2023-05-05T04:07:40.094Z,23.76
2023-05-05T04:08:40.133Z,23.76
2023-05-05T04:09:40.154Z,23.76
2023-05-05T04:10:40.153Z,23.76
2023-05-05T04:11:40.221Z,23.77
2023-05-05T04:12:40.285Z,23.77
2023-05-05T04:13:40.277Z,23.76
2023-05-05T04:14:40.284Z,23.76
2023-05-05T04:15:40.291Z,23.77
2023-05-05T04:16:40.309Z,23.76
2023-05-05T04:17:40.347Z,23.77
2023-05-05T04:18:40.340Z,23.76
2023-05-05T04:19:40.362Z,23.77
2023-05-05T04:20:40.409Z,23.77
2023-05-05T04:21:40.424Z,23.78
2023-05-05T04:22:40.459Z,23.77
2023-05-05T04:23:40.520Z,23.77
2023-05-05T04:24:40.565Z,23.78
2023-05-05T04:25:40.634Z,23.78
2023-05-05T04:26:40.701Z,23.78
2023-05-05T04:27:40.717Z,23.78
2023-05-05T04:28:40.754Z,23.79
2023-05-05T04:29:40.751Z,23.78
2023-05-05T04:30:40.769Z,23.79
2023-05-05T04:31:40.864Z,23.79
2023-05-05T04:32:40.866Z,23.79
2023-05-05T04:33:40.837Z,23.79
2023-05-05T04:34:40.816Z,23.79
2023-05-05T04:35:40.838Z,23.79
2023-05-05T04:36:40.864Z,23.80
2023-05-05T04:37:40.923Z,23.80
2023-05-05T04:38:41.012Z,23.80
2023-05-05T04:39:41.044Z,23.81
2023-05-05T04:40:41.110Z,23.81
2023-05-05T04:41:41.143Z,23.81
2023-05-05T04:42:41.164Z,23.81
2023-05-05T04:43:41.135Z,23.81
2023-05-05T04:44:41.134Z,23.82
2023-05-05T04:45:41.156Z,23.82
2023-05-05T04:46:41.210Z,23.82
2023-05-05T04:47:41.189Z,23.82
2023-05-05T04:48:41.151Z,23.83
2023-05-05T04:49:41.159Z,23.84
2023-05-05T04:50:41.164Z,23.83
2023-05-05T04:51:41.182Z,23.83
2023-05-05T04:52:41.235Z,23.84
2023-05-05T04:53:41.311Z,23.83
2023-05-05T04:54:41.361Z,23.84
2023-05-05T04:55:41.397Z,23.85
2023-05-05T04:56:41.416Z,23.84
2023-05-05T04:57:41.423Z,23.85
2023-05-05T04:58:41.437Z,23.88
2023-05-05T04:59:41.444Z,24.02
2023-05-05T05:00:41.466Z,24.47
2023-05-05T05:01:41.528Z,24.97
2023-05-05T05:02:41.578Z,25.42
2023-05-05T05:03:41.720Z,25.79
2023-05-05T05:04:41.629Z,25.98
2023-05-05T05:05:41.682Z,26.16
2023-05-05T05:06:41.734Z,26.32
2023-05-05T05:07:41.758Z,26.52
2023-05-05T05:08:41.768Z,26.69
2023-05-05T05:09:41.785Z,26.69
2023-05-05T05:10:41.815Z,26.68
2023-05-05T05:11:41.822Z,26.78
2023-05-05T05:12:41.843Z,26.94
2023-05-05T05:13:41.821Z,27.00
2023-05-05T05:14:41.884Z,27.02
2023-05-05T05:15:41.877Z,27.08
2023-05-05T05:16:41.938Z,27.22
2023-05-05T05:17:41.942Z,27.42
2023-05-05T05:18:41.958Z,27.64
2023-05-05T05:19:41.997Z,27.73
2023-05-05T05:20:42.028Z,27.42
2023-05-05T05:21:42.067Z,26.95
2023-05-05T05:22:42.085Z,26.54
2023-05-05T05:23:42.132Z,26.22
2023-05-05T05:24:42.182Z,25.97
2023-05-05T05:25:42.186Z,25.77
2023-05-05T05:26:42.204Z,25.60
2023-05-05T05:27:42.224Z,25.44
2023-05-05T05:28:42.249Z,25.33
2023-05-05T05:29:42.324Z,25.24
2023-05-05T05:30:42.362Z,25.16
2023-05-05T05:31:42.495Z,25.09
2023-05-05T05:32:42.467Z,25.07
2023-05-05T05:33:42.589Z,25.06
2023-05-05T05:34:42.577Z,25.07
2023-05-05T05:35:42.637Z,25.10
2023-05-05T05:36:42.677Z,25.22
2023-05-05T05:37:42.715Z,25.37
2023-05-05T05:38:42.736Z,25.44
2023-05-05T05:39:43.756Z,25.34
2023-05-05T05:40:42.736Z,25.26
2023-05-05T05:41:42.799Z,25.19
2023-05-05T05:42:42.841Z,25.14
2023-05-05T05:43:43.061Z,25.12
2023-05-05T05:44:42.888Z,25.11
2023-05-05T05:45:43.046Z,25.07
2023-05-05T05:46:43.051Z,25.06
2023-05-05T05:47:42.983Z,25.04
2023-05-05T05:48:43.012Z,25.01
2023-05-05T05:49:43.034Z,25.01
2023-05-05T05:50:43.074Z,25.01
2023-05-05T05:51:43.124Z,24.99
2023-05-05T05:52:43.161Z,24.97
2023-05-05T05:53:43.208Z,24.97
2023-05-05T05:54:43.224Z,24.95
2023-05-05T05:55:43.256Z,24.92
2023-05-05T05:56:43.292Z,24.91
2023-05-05T05:57:43.299Z,24.90
2023-05-05T05:58:43.322Z,24.88
2023-05-05T05:59:43.341Z,24.89
2023-05-05T06:00:43.357Z,24.88
2023-05-05T06:01:43.357Z,24.87
2023-05-05T06:02:43.459Z,24.86
2023-05-05T06:03:43.672Z,24.85
2023-05-05T06:04:43.500Z,24.84
2023-05-05T06:05:43.535Z,24.84
2023-05-05T06:06:43.589Z,24.85
2023-05-05T06:07:43.569Z,24.84
2023-05-05T06:08:43.578Z,24.84
2023-05-05T06:09:43.654Z,24.85
2023-05-05T06:10:43.685Z,24.85
2023-05-05T06:11:43.698Z,24.86
2023-05-05T06:12:43.736Z,24.85
2023-05-05T06:13:43.733Z,24.84
2023-05-05T06:14:43.742Z,24.84
2023-05-05T06:15:43.782Z,24.84
2023-05-05T06:16:43.746Z,24.83
2023-05-05T06:17:43.795Z,24.85
2023-05-05T06:18:44.089Z,24.84
2023-05-05T06:19:43.759Z,24.84
2023-05-05T06:20:43.746Z,24.85
2023-05-05T06:21:43.769Z,24.85
2023-05-05T06:22:43.758Z,24.85
2023-05-05T06:23:43.799Z,24.86
2023-05-05T06:24:43.795Z,24.87
2023-05-05T06:25:43.813Z,24.87
2023-05-05T06:26:43.831Z,24.88
2023-05-05T06:27:43.824Z,24.87
2023-05-05T06:28:43.845Z,24.89
2023-05-05T06:29:43.847Z,24.91
2023-05-05T06:30:43.861Z,24.92
2023-05-05T06:31:44.121Z,24.94
2023-05-05T06:32:43.946Z,25.10
2023-05-05T06:33:43.939Z,25.28
2023-05-05T06:34:43.971Z,25.43
2023-05-05T06:35:43.992Z,25.53
2023-05-05T06:36:44.063Z,25.66
2023-05-05T06:37:44.069Z,25.81
2023-05-05T06:38:44.111Z,25.92
2023-05-05T06:39:44.155Z,26.02
2023-05-05T06:40:44.183Z,26.09
2023-05-05T06:41:44.233Z,26.14
2023-05-05T06:42:44.283Z,26.19
2023-05-05T06:43:44.600Z,26.26
2023-05-05T06:44:44.372Z,26.31
2023-05-05T06:45:44.431Z,26.36
2023-05-05T06:46:44.621Z,26.38
2023-05-05T06:47:44.612Z,26.43
2023-05-05T06:48:44.575Z,26.49
2023-05-05T06:49:44.642Z,26.56
2023-05-05T06:50:44.683Z,26.60
2023-05-05T06:51:44.736Z,26.64
2023-05-05T06:52:44.771Z,26.68
2023-05-05T06:53:45.105Z,26.71
2023-05-05T06:54:44.903Z,26.72
2023-05-05T06:55:44.900Z,26.63
2023-05-05T06:56:44.935Z,26.54
2023-05-05T06:57:44.985Z,26.48
2023-05-05T06:58:45.025Z,26.45
2023-05-05T06:59:45.073Z,26.43
2023-05-05T07:00:45.184Z,26.41
2023-05-05T07:01:45.165Z,26.36
2023-05-05T07:02:45.260Z,26.34
2023-05-05T07:03:45.326Z,26.36
2023-05-05T07:04:45.283Z,26.36
2023-05-05T07:05:45.271Z,26.36
2023-05-05T07:06:45.285Z,26.35
2023-05-05T07:07:45.281Z,26.36
2023-05-05T07:08:45.645Z,26.36
2023-05-05T07:09:45.288Z,26.37
2023-05-05T07:10:45.334Z,26.38
2023-05-05T07:11:45.595Z,26.38
2023-05-05T07:12:45.420Z,26.38
2023-05-05T07:13:45.406Z,26.39
2023-05-05T07:14:45.438Z,26.41
2023-05-05T07:15:45.461Z,26.41
2023-05-05T07:16:45.564Z,26.41
2023-05-05T07:17:45.536Z,26.40
2023-05-05T07:18:45.531Z,26.41
2023-05-05T07:19:45.599Z,26.41
2023-05-05T07:20:45.550Z,26.40
2023-05-05T07:21:45.559Z,26.40
2023-05-05T07:22:45.842Z,26.41
2023-05-05T07:23:45.573Z,26.41
2023-05-05T07:24:45.591Z,26.42
2023-05-05T07:25:45.626Z,26.43
2023-05-05T07:26:45.740Z,26.38
2023-05-05T07:27:45.722Z,26.29
2023-05-05T07:28:46.102Z,26.25
2023-05-05T07:29:45.787Z,26.21
2023-05-05T07:30:45.972Z,26.17
2023-05-05T07:31:46.178Z,26.17
2023-05-05T07:32:45.962Z,26.20
2023-05-05T07:33:45.866Z,26.24
2023-05-05T07:34:45.897Z,26.29
2023-05-05T07:35:45.907Z,26.32
2023-05-05T07:36:46.129Z,26.36
2023-05-05T07:37:45.918Z,26.39
2023-05-05T07:38:45.922Z,26.41
2023-05-05T07:39:45.918Z,26.43
2023-05-05T07:40:45.912Z,26.45
2023-05-05T07:41:45.950Z,26.48
2023-05-05T07:42:46.066Z,26.49
2023-05-05T07:43:46.094Z,26.51
2023-05-05T07:44:46.104Z,26.53
2023-05-05T07:45:46.127Z,26.53
2023-05-05T07:46:46.129Z,26.54
2023-05-05T07:47:46.215Z,26.55
2023-05-05T07:48:46.606Z,26.55
2023-05-05T07:49:46.180Z,26.57
2023-05-05T07:50:46.283Z,26.57
2023-05-05T07:51:46.302Z,26.59
2023-05-05T07:52:49.950Z,26.60
2023-05-05T07:53:47.341Z,26.61
2023-05-05T07:54:46.338Z,26.61
2023-05-05T07:55:46.349Z,26.62
2023-05-05T07:56:46.345Z,26.63
2023-05-05T07:57:46.332Z,26.63
2023-05-05T07:58:46.378Z,26.63
2023-05-05T07:59:46.331Z,26.65
2023-05-05T08:00:46.329Z,26.65
2023-05-05T08:01:46.628Z,26.67
2023-05-05T08:02:46.372Z,26.68
2023-05-05T08:03:46.375Z,26.70
2023-05-05T08:04:46.309Z,26.71
2023-05-05T08:05:46.282Z,26.71
2023-05-05T08:06:46.279Z,26.73
2023-05-05T08:07:46.257Z,26.75
2023-05-05T08:08:46.236Z,26.75
2023-05-05T08:09:46.638Z,26.76
2023-05-05T08:10:46.248Z,26.71
2023-05-05T08:11:46.231Z,26.68
2023-05-05T08:12:46.240Z,26.69
2023-05-05T08:13:46.308Z,26.61
2023-05-05T08:14:46.431Z,26.54
2023-05-05T08:15:46.403Z,26.46
2023-05-05T08:16:46.358Z,26.38
2023-05-05T08:17:46.639Z,26.33
2023-05-05T08:18:46.400Z,26.28
2023-05-05T08:19:46.651Z,26.22
2023-05-05T08:20:46.370Z,26.14
2023-05-05T08:21:46.371Z,26.09
2023-05-05T08:22:46.413Z,26.06
2023-05-05T08:23:46.661Z,26.02
2023-05-05T08:24:46.426Z,25.97
2023-05-05T08:25:46.453Z,25.94
2023-05-05T08:26:46.498Z,25.90
2023-05-05T08:27:46.563Z,25.84
2023-05-05T08:28:46.611Z,25.79
2023-05-05T08:29:46.624Z,25.75
2023-05-05T08:30:46.762Z,25.70
2023-05-05T08:31:46.801Z,25.66
2023-05-05T08:32:46.812Z,25.64
2023-05-05T08:33:46.849Z,25.60
2023-05-05T08:34:46.800Z,25.57
2023-05-05T08:35:46.803Z,25.55
2023-05-05T08:36:46.844Z,25.51
2023-05-05T08:37:46.828Z,25.52
2023-05-05T08:38:46.831Z,25.55
2023-05-05T08:39:46.894Z,25.59
2023-05-05T08:40:46.915Z,25.65
2023-05-05T08:41:46.975Z,25.74
2023-05-05T08:42:46.997Z,25.80
2023-05-05T08:43:47.040Z,25.85
2023-05-05T08:44:47.092Z,25.90
2023-05-05T08:45:47.142Z,25.96
2023-05-05T08:46:47.341Z,25.99
2023-05-05T08:47:47.661Z,26.03
2023-05-05T08:48:47.212Z,26.05
2023-05-05T08:49:47.232Z,26.09
2023-05-05T08:50:47.279Z,26.11
2023-05-05T08:51:47.492Z,26.13
2023-05-05T08:52:48.644Z,26.15
2023-05-05T08:53:47.451Z,26.17
2023-05-05T08:54:47.650Z,26.18
2023-05-05T08:55:47.548Z,26.20
2023-05-05T08:56:47.566Z,26.22
2023-05-05T08:57:47.632Z,26.24
2023-05-05T08:58:47.739Z,26.25
2023-05-05T08:59:47.665Z,26.27
2023-05-05T09:00:47.729Z,26.28
2023-05-05T09:01:47.738Z,26.30
2023-05-05T09:02:48.040Z,26.31
2023-05-05T09:03:47.852Z,26.32
2023-05-05T09:04:48.151Z,26.32
2023-05-05T09:05:47.932Z,26.33
2023-05-05T09:06:47.954Z,26.33
2023-05-05T09:07:48.013Z,26.34
2023-05-05T09:08:48.104Z,26.35
2023-05-05T09:09:48.133Z,26.36
2023-05-05T09:10:48.227Z,26.38
2023-05-05T09:11:48.244Z,26.39
2023-05-05T09:12:48.311Z,26.41
2023-05-05T09:13:48.371Z,26.43
2023-05-05T09:14:48.357Z,26.44
2023-05-05T09:15:48.320Z,26.46
2023-05-05T09:16:48.467Z,26.48
2023-05-05T09:17:48.617Z,26.49
2023-05-05T09:18:48.452Z,26.52
2023-05-05T09:19:48.452Z,26.54
2023-05-05T09:20:48.481Z,26.58
2023-05-05T09:21:48.536Z,26.62
2023-05-05T09:22:48.537Z,26.62
2023-05-05T09:23:48.608Z,26.64
2023-05-05T09:24:48.638Z,26.65
2023-05-05T09:25:48.742Z,26.66
2023-05-05T09:26:48.773Z,26.64
2023-05-05T09:27:48.820Z,26.62
2023-05-05T09:28:49.029Z,26.57
2023-05-05T09:29:48.878Z,26.51
2023-05-05T09:30:48.975Z,26.43
2023-05-05T09:31:48.959Z,26.38
2023-05-05T09:32:49.220Z,26.29
2023-05-05T09:33:49.053Z,26.23
2023-05-05T09:34:49.200Z,26.12
2023-05-05T09:35:49.092Z,26.04
2023-05-05T09:36:49.171Z,26.01
2023-05-05T09:37:49.153Z,25.99
2023-05-05T09:38:49.163Z,25.97
2023-05-05T09:39:49.244Z,25.99
2023-05-05T09:40:49.288Z,26.04
2023-05-05T09:41:49.284Z,26.05
2023-05-05T09:42:49.311Z,26.07
2023-05-05T09:43:49.325Z,26.08
2023-05-05T09:44:49.393Z,26.12
2023-05-05T09:45:49.418Z,26.15
2023-05-05T09:46:49.493Z,26.17
2023-05-05T09:47:49.569Z,26.17
2023-05-05T09:48:49.554Z,26.17
2023-05-05T09:49:49.535Z,26.20
2023-05-05T09:50:49.759Z,26.20
2023-05-05T09:51:49.625Z,26.22
2023-05-05T09:52:49.662Z,26.22
2023-05-05T09:53:49.764Z,26.22
2023-05-05T09:54:49.762Z,26.20
2023-05-05T09:55:49.783Z,26.17
2023-05-05T09:56:49.802Z,26.12
2023-05-05T09:57:49.794Z,26.09
2023-05-05T09:58:49.837Z,26.01
2023-05-05T09:59:49.857Z,25.98
2023-05-05T10:00:49.913Z,25.96
2023-05-05T10:01:49.927Z,25.96
2023-05-05T10:02:50.003Z,25.97
2023-05-05T10:03:49.983Z,25.96
2023-05-05T10:04:50.196Z,25.97
2023-05-05T10:05:50.099Z,25.99
2023-05-05T10:06:50.228Z,26.00
2023-05-05T10:07:50.201Z,25.99
2023-05-05T10:08:50.244Z,25.95
2023-05-05T10:09:50.303Z,25.92
2023-05-05T10:10:50.369Z,25.92
2023-05-05T10:11:50.443Z,25.94
2023-05-05T10:12:50.563Z,25.98
2023-05-05T10:13:50.521Z,26.04
2023-05-05T10:14:50.557Z,26.09
2023-05-05T10:15:50.604Z,26.11
2023-05-05T10:16:50.636Z,26.12
2023-05-05T10:18:02.193Z,26.13
2023-05-05T10:18:51.601Z,26.12
2023-05-05T10:19:50.602Z,26.13
2023-05-05T10:20:50.895Z,26.18
2023-05-05T10:21:50.702Z,26.21
2023-05-05T10:22:50.684Z,26.26
2023-05-05T10:23:50.593Z,26.29
2023-05-05T10:24:50.547Z,26.31
2023-05-05T10:25:50.553Z,26.35
2023-05-05T10:26:50.584Z,26.39
2023-05-05T10:27:50.540Z,26.44
2023-05-05T10:28:50.554Z,26.48
2023-05-05T10:29:50.532Z,26.53
2023-05-05T10:30:50.530Z,26.60
2023-05-05T10:31:50.550Z,26.64
2023-05-05T10:33:00.861Z,26.69
2023-05-05T10:33:51.593Z,26.72
2023-05-05T10:34:50.527Z,26.74
2023-05-05T10:35:50.494Z,26.79
2023-05-05T10:36:50.511Z,26.80
2023-05-05T10:37:50.502Z,26.83
2023-05-05T10:38:50.548Z,26.86
2023-05-05T10:39:50.477Z,26.88
2023-05-05T10:40:50.458Z,26.89
2023-05-05T10:41:50.472Z,26.91
2023-05-05T10:42:50.461Z,26.93
2023-05-05T10:43:50.458Z,26.95
2023-05-05T10:44:50.448Z,26.98
2023-05-05T10:45:50.523Z,27.01
2023-05-05T10:46:50.440Z,27.01
2023-05-05T10:47:50.560Z,27.03
2023-05-05T10:48:50.711Z,27.05
2023-05-05T10:49:50.611Z,27.06
2023-05-05T10:50:50.680Z,27.07
2023-05-05T10:51:50.656Z,27.08
2023-05-05T10:52:50.725Z,27.09
2023-05-05T10:53:50.773Z,27.10
2023-05-05T10:54:50.908Z,27.10
2023-05-05T10:55:50.834Z,27.12
2023-05-05T10:56:50.881Z,27.14
2023-05-05T10:57:50.907Z,27.14
2023-05-05T10:58:59.787Z,27.15
2023-05-05T10:59:52.214Z,27.15
2023-05-05T11:00:50.958Z,27.15
2023-05-05T11:01:50.991Z,27.16
2023-05-05T11:02:50.942Z,27.17
2023-05-05T11:03:50.961Z,27.18
2023-05-05T11:04:50.934Z,27.19
2023-05-05T11:05:50.896Z,27.20
2023-05-05T11:06:50.925Z,27.21
2023-05-05T11:07:50.880Z,27.21
2023-05-05T11:08:50.893Z,27.20
2023-05-05T11:09:51.209Z,27.20
2023-05-05T11:10:51.084Z,27.20
2023-05-05T11:11:50.865Z,27.20
2023-05-05T11:12:50.906Z,27.17
2023-05-05T11:13:50.863Z,27.15
2023-05-05T11:14:51.190Z,27.12
2023-05-05T11:15:50.861Z,27.05
2023-05-05T11:16:50.932Z,27.03
2023-05-05T11:17:50.908Z,26.95
2023-05-05T11:18:50.887Z,26.89
2023-05-05T11:19:51.212Z,26.83
2023-05-05T11:20:50.956Z,26.77
2023-05-05T11:21:51.132Z,26.71
2023-05-05T11:22:51.024Z,26.66
2023-05-05T11:23:51.121Z,26.61
2023-05-05T11:24:51.168Z,26.55
2023-05-05T11:25:51.212Z,26.50
2023-05-05T11:26:51.373Z,26.47
2023-05-05T11:27:51.305Z,26.44
2023-05-05T11:28:51.334Z,26.40
2023-05-05T11:29:52.137Z,26.37
2023-05-05T11:30:51.488Z,26.36
2023-05-05T11:31:51.473Z,26.33
2023-05-05T11:32:51.545Z,26.32
2023-05-05T11:33:51.557Z,26.31
2023-05-05T11:34:51.562Z,26.30
2023-05-05T11:35:51.545Z,26.29
2023-05-05T11:36:51.528Z,26.27
2023-05-05T11:37:51.521Z,26.26
2023-05-05T11:38:51.524Z,26.25
2023-05-05T11:39:51.509Z,26.24
2023-05-05T11:40:51.532Z,26.22
2023-05-05T11:41:51.548Z,26.21
2023-05-05T11:42:51.546Z,26.20
2023-05-05T11:43:51.576Z,26.19
2023-05-05T11:44:51.628Z,26.18
2023-05-05T11:45:51.693Z,26.17
2023-05-05T11:46:51.738Z,26.15
2023-05-05T11:47:51.808Z,26.14
2023-05-05T11:48:51.814Z,26.14
2023-05-05T11:49:51.832Z,26.12
2023-05-05T11:50:51.903Z,26.12
2023-05-05T11:51:51.939Z,26.12
2023-05-05T11:52:51.990Z,26.11
2023-05-05T11:53:52.021Z,26.11
2023-05-05T11:54:52.080Z,26.10
2023-05-05T11:55:52.104Z,26.09
2023-05-05T11:56:52.124Z,26.08
2023-05-05T11:57:52.142Z,26.08
2023-05-05T11:58:52.207Z,26.07
2023-05-05T11:59:52.163Z,26.06
2023-05-05T12:00:52.166Z,26.05
2023-05-05T12:01:52.195Z,26.04
2023-05-05T12:02:52.285Z,26.03
2023-05-05T12:03:52.466Z,26.02
2023-05-05T12:04:52.322Z,26.01
2023-05-05T12:05:52.244Z,26.01
2023-05-05T12:06:52.284Z,26.00
2023-05-05T12:07:52.280Z,25.99
2023-05-05T12:08:52.293Z,25.98
2023-05-05T12:09:52.329Z,25.98
2023-05-05T12:10:52.385Z,25.97
2023-05-05T12:11:52.414Z,25.97
2023-05-05T12:12:55.158Z,25.96
2023-05-05T12:13:52.405Z,25.95
2023-05-05T12:14:52.483Z,25.95
2023-05-05T12:15:52.440Z,25.94
2023-05-05T12:16:52.409Z,25.93
2023-05-05T12:17:52.452Z,25.93
2023-05-05T12:18:52.385Z,25.92
2023-05-05T12:19:52.433Z,25.92
2023-05-05T12:20:52.364Z,25.92
2023-05-05T12:21:52.380Z,25.92
2023-05-05T12:22:52.362Z,25.91
2023-05-05T12:23:52.360Z,25.91
2023-05-05T12:24:53.804Z,25.91
2023-05-05T12:25:52.503Z,25.91
2023-05-05T12:26:52.622Z,25.90
2023-05-05T12:27:52.509Z,25.91
2023-05-05T12:28:52.526Z,25.92
2023-05-05T12:29:52.579Z,25.92
2023-05-05T12:30:53.857Z,25.94
2023-05-05T12:31:52.660Z,25.95
2023-05-05T12:32:52.663Z,25.97
2023-05-05T12:33:52.663Z,25.97
2023-05-05T12:34:52.690Z,25.98
2023-05-05T12:35:52.723Z,25.99
2023-05-05T12:36:52.752Z,26.00
2023-05-05T12:37:52.763Z,26.01
2023-05-05T12:38:52.833Z,26.02
2023-05-05T12:39:52.814Z,26.04
2023-05-05T12:40:52.811Z,26.04
2023-05-05T12:41:52.830Z,26.05
2023-05-05T12:42:52.885Z,26.06
2023-05-05T12:43:52.917Z,26.07
2023-05-05T12:44:52.941Z,26.08
2023-05-05T12:45:53.036Z,26.08
2023-05-05T12:46:53.031Z,26.09
2023-05-05T12:47:53.123Z,26.10
2023-05-05T12:48:53.011Z,26.11
2023-05-05T12:49:53.049Z,26.10
2023-05-05T12:50:53.100Z,26.10
2023-05-05T12:51:53.100Z,26.10
2023-05-05T12:52:53.058Z,26.11